River Falls, Wisconsin
Current Conditions -  °F | °C
As of 11:51 AM on Sunday 21 Dec 2014 (Local Time) from K21D Reporting Station
Light Snow Light Snow  
Wind Chill: -3°   Ceiling: 300
Heat Index:   Visibility: 1.7mi
Dew Point:   Wind: 8mph
Humidity: 93%   Direction: 150°SSE
Pressure: 29.84"   Gusts: NA
Location:  44.85°N, 92.63°W
Report Text: K21D 211751Z AUTO 15007KT 1 3/4SM -SN OVC003 01/00 A2984 RMK AO2 P0001
Loading
Personal Weather Stations






























Interactive Weather Map New forecast layout! Learn more

10-Day Weather Forecast

Advertisements
Track Severe Weather on mobile